createdAt,value
2017-03-08T00:00:52.042Z,0
2017-03-08T00:02:02.716Z,0
2017-03-08T00:03:12.672Z,0
2017-03-08T00:04:22.633Z,0
2017-03-08T00:05:33.001Z,0
2017-03-08T00:06:43.373Z,0
2017-03-08T00:07:54.388Z,0
2017-03-08T00:09:05.169Z,0
2017-03-08T00:10:16.067Z,0
2017-03-08T00:11:26.029Z,0
2017-03-08T00:12:36.378Z,0
2017-03-08T00:13:47.383Z,0
2017-03-08T00:14:58.137Z,0
2017-03-08T00:16:08.889Z,0
2017-03-08T00:17:19.246Z,0
2017-03-08T00:18:28.788Z,0
2017-03-08T00:19:39.786Z,0
2017-03-08T00:20:50.518Z,0
2017-03-08T00:22:01.261Z,0
2017-03-08T00:23:11.200Z,0
2017-03-08T00:24:21.945Z,0
2017-03-08T00:25:32.941Z,0
2017-03-08T00:26:43.300Z,0
2017-03-08T00:27:53.651Z,0
2017-03-08T00:29:03.619Z,0
2017-03-08T00:30:13.982Z,0
2017-03-08T00:31:24.190Z,0
2017-03-08T00:32:34.928Z,0
2017-03-08T00:33:45.287Z,0
2017-03-08T00:34:55.628Z,0
2017-03-08T00:36:06.375Z,0
2017-03-08T00:37:17.418Z,0
2017-03-08T00:38:28.166Z,0
2017-03-08T00:39:37.723Z,0
2017-03-08T00:40:48.462Z,0
2017-03-08T00:41:58.044Z,0
2017-03-08T00:43:09.115Z,0
2017-03-08T00:44:19.880Z,0
2017-03-08T00:45:30.231Z,0
2017-03-08T00:46:39.793Z,0
2017-03-08T00:47:50.148Z,0
2017-03-08T00:49:00.417Z,0
2017-03-08T00:50:10.368Z,0
2017-03-08T00:51:21.097Z,0
2017-03-08T00:52:31.837Z,0
2017-03-08T00:53:42.576Z,0
2017-03-08T00:54:53.181Z,0
2017-03-08T00:56:03.559Z,0
2017-03-08T00:57:14.310Z,0
2017-03-08T00:58:24.260Z,0
2017-03-08T00:59:35.015Z,0
2017-03-08T01:00:45.626Z,0
2017-03-08T01:01:55.645Z,0
2017-03-08T01:03:06.410Z,0
2017-03-08T01:04:16.355Z,0
2017-03-08T01:05:27.114Z,0
2017-03-08T01:06:38.163Z,0
2017-03-08T01:07:48.155Z,0
2017-03-08T01:08:58.120Z,0
2017-03-08T01:10:08.064Z,0
2017-03-08T01:11:18.800Z,0
2017-03-08T01:12:29.057Z,0
2017-03-08T01:13:39.805Z,0
2017-03-08T01:14:50.183Z,0
2017-03-08T01:16:00.556Z,0
2017-03-08T01:17:10.131Z,0
2017-03-08T01:18:21.132Z,0
2017-03-08T01:19:31.075Z,0
2017-03-08T01:20:41.034Z,0
2017-03-08T01:21:51.002Z,0
2017-03-08T01:23:01.757Z,0
2017-03-08T01:24:11.971Z,0
2017-03-08T01:25:22.756Z,0
2017-03-08T01:26:33.514Z,0
2017-03-08T01:27:43.866Z,0
2017-03-08T01:28:54.211Z,0
2017-03-08T01:30:04.849Z,0
2017-03-08T01:31:15.578Z,0
2017-03-08T01:32:26.320Z,0
2017-03-08T01:33:36.669Z,0
2017-03-08T01:34:46.256Z,0
2017-03-08T01:35:57.258Z,0
2017-03-08T01:37:07.978Z,0
2017-03-08T01:38:18.736Z,0
2017-03-08T01:39:28.711Z,0
2017-03-08T01:40:39.467Z,0
2017-03-08T01:41:49.767Z,0
2017-03-08T01:43:00.142Z,0
2017-03-08T01:44:10.120Z,0
2017-03-08T01:45:20.474Z,0
2017-03-08T01:46:31.254Z,0
2017-03-08T01:47:42.301Z,0
2017-03-08T01:48:52.670Z,0
2017-03-08T01:50:03.024Z,0
2017-03-08T01:51:13.776Z,0
2017-03-08T01:52:24.531Z,0
2017-03-08T01:53:35.145Z,0
2017-03-08T01:54:45.140Z,0
2017-03-08T01:55:55.504Z,0
2017-03-08T01:57:06.251Z,0
2017-03-08T01:58:16.577Z,0
2017-03-08T01:59:27.185Z,0
2017-03-08T02:00:37.558Z,0
2017-03-08T02:01:48.320Z,0
2017-03-08T02:02:59.045Z,0
2017-03-08T02:04:09.409Z,0
2017-03-08T02:05:20.393Z,0
2017-03-08T02:06:30.755Z,0
2017-03-08T02:07:41.501Z,0
2017-03-08T02:08:51.851Z,0
2017-03-08T02:10:02.628Z,0
2017-03-08T02:11:13.680Z,0
2017-03-08T02:12:24.029Z,0
2017-03-08T02:13:34.797Z,0
2017-03-08T02:14:45.536Z,0
2017-03-08T02:15:55.895Z,0
2017-03-08T02:17:06.099Z,0
2017-03-08T02:18:16.028Z,0
2017-03-08T02:19:26.010Z,0
2017-03-08T02:20:35.971Z,0
2017-03-08T02:21:46.733Z,0
2017-03-08T02:22:56.918Z,0
2017-03-08T02:24:07.268Z,0
2017-03-08T02:25:17.255Z,0
2017-03-08T02:26:27.994Z,0
2017-03-08T02:27:38.755Z,0
2017-03-08T02:28:49.353Z,0
2017-03-08T02:30:00.166Z,0
2017-03-08T02:31:10.551Z,0
2017-03-08T02:32:20.903Z,0
2017-03-08T02:33:30.845Z,0
2017-03-08T02:34:41.857Z,0
2017-03-08T02:35:52.193Z,0
2017-03-08T02:37:02.938Z,0
2017-03-08T02:38:13.703Z,0
2017-03-08T02:39:24.445Z,0
2017-03-08T02:40:35.426Z,0
2017-03-08T02:41:46.150Z,0
2017-03-08T02:42:56.511Z,0
2017-03-08T02:44:07.255Z,0
2017-03-08T02:45:18.009Z,0
2017-03-08T02:46:29.015Z,0
2017-03-08T02:47:39.751Z,0
2017-03-08T02:48:49.724Z,0
2017-03-08T02:50:00.187Z,0
2017-03-08T02:51:10.182Z,0
2017-03-08T02:52:20.429Z,0
2017-03-08T02:53:30.814Z,0
2017-03-08T02:54:41.181Z,0
2017-03-08T02:55:51.937Z,0
2017-03-08T02:57:02.298Z,0
2017-03-08T02:58:12.893Z,0
2017-03-08T02:59:23.238Z,0
2017-03-08T03:00:33.196Z,0
2017-03-08T03:01:43.552Z,0
2017-03-08T03:02:54.308Z,0
2017-03-08T03:04:05.332Z,0
2017-03-08T03:05:15.683Z,0
2017-03-08T03:06:25.662Z,0
2017-03-08T03:07:35.613Z,0
2017-03-08T03:08:46.355Z,0
2017-03-08T03:09:56.979Z,0
2017-03-08T03:11:06.148Z,0
2017-03-08T03:12:16.900Z,0
2017-03-08T03:13:27.261Z,0
2017-03-08T03:14:37.226Z,0
2017-03-08T03:15:48.263Z,0
2017-03-08T03:16:58.205Z,0
2017-03-08T03:18:08.152Z,0
2017-03-08T03:19:18.529Z,0
2017-03-08T03:20:29.277Z,0
2017-03-08T03:21:39.461Z,0
2017-03-08T03:22:49.801Z,0
2017-03-08T03:24:00.157Z,0
2017-03-08T03:25:10.522Z,0
2017-03-08T03:26:20.908Z,0
2017-03-08T03:27:31.125Z,0
2017-03-08T03:28:41.098Z,0
2017-03-08T03:29:51.434Z,0
2017-03-08T03:31:02.166Z,0
2017-03-08T03:32:12.529Z,0
2017-03-08T03:33:23.229Z,0
2017-03-08T03:34:33.997Z,0
2017-03-08T03:35:43.937Z,0
2017-03-08T03:36:54.291Z,0
2017-03-08T03:38:04.650Z,0
2017-03-08T03:39:14.900Z,0
2017-03-08T03:40:25.274Z,0
2017-03-08T03:41:36.034Z,0
2017-03-08T03:42:46.764Z,0
2017-03-08T03:43:57.120Z,0
2017-03-08T03:45:12.087Z,0
2017-03-08T03:46:21.299Z,0
2017-03-08T03:47:31.658Z,0
2017-03-08T03:48:42.026Z,0
2017-03-08T03:49:51.575Z,0
2017-03-08T03:51:02.164Z,0
2017-03-08T03:52:12.500Z,0
2017-03-08T03:53:22.837Z,0
2017-03-08T03:54:33.566Z,0
2017-03-08T03:55:44.302Z,0
2017-03-08T03:56:54.944Z,0
2017-03-08T03:58:05.303Z,0
2017-03-08T03:59:16.064Z,0
2017-03-08T04:00:26.839Z,0
2017-03-08T04:01:36.795Z,0
2017-03-08T04:02:46.993Z,0
2017-03-08T04:03:57.321Z,0
2017-03-08T04:05:07.283Z,0
2017-03-08T04:06:18.025Z,0
2017-03-08T04:07:28.769Z,0
2017-03-08T04:08:39.756Z,0
2017-03-08T04:09:50.116Z,0
2017-03-08T04:11:00.472Z,0
2017-03-08T04:12:11.235Z,0
2017-03-08T04:13:21.204Z,0
2017-03-08T04:14:32.233Z,0
2017-03-08T04:15:42.581Z,0
2017-03-08T04:16:52.534Z,0
2017-03-08T04:18:03.287Z,0
2017-03-08T04:19:13.629Z,0
2017-03-08T04:20:23.840Z,0
2017-03-08T04:21:34.587Z,0
2017-03-08T04:22:44.960Z,0
2017-03-08T04:23:55.699Z,0
2017-03-08T04:25:06.064Z,0
2017-03-08T04:26:16.714Z,0
2017-03-08T04:27:26.650Z,0
2017-03-08T04:28:37.408Z,0
2017-03-08T04:29:48.167Z,0
2017-03-08T04:30:58.525Z,0
2017-03-08T04:32:08.745Z,0
2017-03-08T04:33:19.108Z,0
2017-03-08T04:34:29.879Z,0
2017-03-08T04:35:40.624Z,0
2017-03-08T04:36:50.595Z,0
2017-03-08T04:38:01.230Z,0
2017-03-08T04:39:11.985Z,0
2017-03-08T04:40:22.333Z,0
2017-03-08T04:41:32.688Z,0
2017-03-08T04:42:43.427Z,0
2017-03-08T04:43:54.423Z,0
2017-03-08T04:45:04.785Z,0
2017-03-08T04:46:14.349Z,0
2017-03-08T04:47:25.094Z,0
2017-03-08T04:48:35.866Z,0
2017-03-08T04:49:46.144Z,0
2017-03-08T04:50:56.503Z,0
2017-03-08T04:52:07.258Z,0
2017-03-08T04:53:17.619Z,0
2017-03-08T04:54:27.567Z,0
2017-03-08T04:55:37.834Z,0
2017-03-08T04:56:48.186Z,0
2017-03-08T04:57:58.544Z,0
2017-03-08T04:59:08.897Z,0
2017-03-08T05:00:19.267Z,0
2017-03-08T05:01:29.913Z,0
2017-03-08T05:02:40.660Z,0
2017-03-08T05:03:51.018Z,0
2017-03-08T05:05:01.786Z,0
2017-03-08T05:06:12.535Z,0
2017-03-08T05:07:23.604Z,0
2017-03-08T05:08:33.971Z,0
2017-03-08T05:09:44.371Z,0
2017-03-08T05:10:54.331Z,0
2017-03-08T05:12:03.891Z,0
2017-03-08T05:13:14.141Z,0
2017-03-08T05:14:24.113Z,0
2017-03-08T05:15:34.451Z,0
2017-03-08T05:16:44.829Z,0
2017-03-08T05:17:55.584Z,0
2017-03-08T05:19:05.447Z,0
2017-03-08T05:20:15.824Z,0
2017-03-08T05:21:26.183Z,0
2017-03-08T05:22:36.525Z,0
2017-03-08T05:23:46.876Z,0
2017-03-08T05:24:56.669Z,0
2017-03-08T05:26:06.999Z,0
2017-03-08T05:27:16.941Z,0
2017-03-08T05:28:26.904Z,0
2017-03-08T05:29:37.689Z,0
2017-03-08T05:30:47.911Z,0
2017-03-08T05:31:58.264Z,0
2017-03-08T05:33:08.637Z,0
2017-03-08T05:34:19.427Z,0
2017-03-08T05:35:30.195Z,0
2017-03-08T05:36:41.247Z,0
2017-03-08T05:37:51.615Z,0
2017-03-08T05:39:01.963Z,0
2017-03-08T05:40:12.358Z,0
2017-03-08T05:41:22.697Z,0
2017-03-08T05:42:32.967Z,0
2017-03-08T05:43:43.722Z,0
2017-03-08T05:44:54.478Z,0
2017-03-08T05:46:04.809Z,0
2017-03-08T05:47:15.155Z,0
2017-03-08T05:48:25.803Z,0
2017-03-08T05:49:36.567Z,0
2017-03-08T05:50:47.309Z,0
2017-03-08T05:51:57.671Z,5
2017-03-08T05:53:08.023Z,5
2017-03-08T05:54:17.879Z,5
2017-03-08T05:55:28.615Z,5
2017-03-08T05:56:38.976Z,5
2017-03-08T05:57:49.729Z,5
2017-03-08T05:58:59.296Z,5
2017-03-08T06:00:09.946Z,5
2017-03-08T06:01:20.711Z,5
2017-03-08T06:02:30.672Z,5
2017-03-08T06:03:41.024Z,5
2017-03-08T06:04:51.767Z,5
2017-03-08T06:06:02.422Z,5
2017-03-08T06:07:12.375Z,5
2017-03-08T06:08:22.738Z,5
2017-03-08T06:09:33.113Z,5
2017-03-08T06:10:43.526Z,5
2017-03-08T06:11:54.180Z,5
2017-03-08T06:13:04.948Z,5
2017-03-08T06:14:15.719Z,5
2017-03-08T06:15:26.471Z,5
2017-03-08T06:16:36.844Z,5
2017-03-08T06:17:47.869Z,5
2017-03-08T06:18:57.891Z,5
2017-03-08T06:20:08.644Z,5
2017-03-08T06:21:19.401Z,5
2017-03-08T06:22:30.183Z,5
2017-03-08T06:23:41.188Z,5
2017-03-08T06:24:51.556Z,5
2017-03-08T06:26:02.061Z,5
2017-03-08T06:27:12.423Z,5
2017-03-08T06:28:23.169Z,5
2017-03-08T06:29:33.778Z,5
2017-03-08T06:30:44.547Z,10
2017-03-08T06:31:54.512Z,5
2017-03-08T06:33:04.076Z,5
2017-03-08T06:34:14.134Z,5
2017-03-08T06:35:24.794Z,5
2017-03-08T06:36:34.778Z,5
2017-03-08T06:37:45.137Z,5
2017-03-08T06:38:55.521Z,5
2017-03-08T06:40:05.864Z,5
2017-03-08T06:41:16.189Z,5
2017-03-08T06:42:26.921Z,5
2017-03-08T06:43:37.697Z,5
2017-03-08T06:44:48.051Z,5
2017-03-08T06:45:58.413Z,5
2017-03-08T06:47:08.221Z,5
2017-03-08T06:48:17.392Z,5
2017-03-08T06:49:27.353Z,5
2017-03-08T06:50:37.699Z,5
2017-03-08T06:51:47.651Z,5
2017-03-08T06:52:57.876Z,5
2017-03-08T06:54:08.612Z,5
2017-03-08T06:55:18.983Z,5
2017-03-08T06:56:29.332Z,5
2017-03-08T06:57:40.113Z,5
2017-03-08T06:58:49.980Z,5
2017-03-08T07:00:00.769Z,5
2017-03-08T07:01:11.510Z,5
2017-03-08T07:02:22.288Z,5
2017-03-08T07:03:32.648Z,10
2017-03-08T07:04:43.303Z,10
2017-03-08T07:05:53.670Z,10
2017-03-08T07:07:03.623Z,10
2017-03-08T07:08:13.569Z,10
2017-03-08T07:09:23.923Z,10
2017-03-08T07:10:34.199Z,10
2017-03-08T07:11:44.550Z,10
2017-03-08T07:12:54.541Z,10
2017-03-08T07:14:04.918Z,10
2017-03-08T07:15:15.684Z,15
2017-03-08T07:16:25.233Z,15
2017-03-08T07:17:35.185Z,15
2017-03-08T07:18:45.150Z,15
2017-03-08T07:19:55.885Z,20
2017-03-08T07:21:06.504Z,20
2017-03-08T07:22:16.862Z,20
2017-03-08T07:23:27.245Z,15
2017-03-08T07:24:37.606Z,15
2017-03-08T07:25:48.016Z,15
2017-03-08T07:26:58.618Z,15
2017-03-08T07:28:09.388Z,15
2017-03-08T07:29:20.163Z,15
2017-03-08T07:30:30.550Z,20
2017-03-08T07:31:41.325Z,20
2017-03-08T07:32:51.926Z,20
2017-03-08T07:34:02.333Z,20
2017-03-08T07:35:12.781Z,20
2017-03-08T07:36:23.578Z,20
2017-03-08T07:37:34.345Z,20
2017-03-08T07:38:45.016Z,25
2017-03-08T07:39:55.483Z,25
2017-03-08T07:41:05.446Z,25
2017-03-08T07:42:16.263Z,25
2017-03-08T07:43:27.011Z,25
2017-03-08T07:44:37.687Z,25
2017-03-08T07:45:48.051Z,30
2017-03-08T07:46:58.018Z,30
2017-03-08T07:48:08.796Z,30
2017-03-08T07:49:19.160Z,30
2017-03-08T07:50:29.372Z,30
2017-03-08T07:51:38.938Z,30
2017-03-08T07:52:48.547Z,35
2017-03-08T07:53:58.924Z,35
2017-03-08T07:55:09.315Z,40
2017-03-08T07:56:19.986Z,45
2017-03-08T07:57:30.336Z,50
2017-03-08T07:58:40.706Z,50
2017-03-08T07:59:50.664Z,50
2017-03-08T08:01:01.065Z,50
2017-03-08T08:02:12.083Z,55
2017-03-08T08:03:22.479Z,55
2017-03-08T08:04:32.828Z,55
2017-03-08T08:05:43.177Z,50
2017-03-08T08:06:53.935Z,50
2017-03-08T08:08:04.553Z,50
2017-03-08T08:09:15.340Z,50
2017-03-08T08:10:25.701Z,50
2017-03-08T08:11:36.041Z,50
2017-03-08T08:12:46.018Z,50
2017-03-08T08:13:57.077Z,45
2017-03-08T08:15:07.427Z,45
2017-03-08T08:16:18.170Z,45
2017-03-08T08:17:28.570Z,50
2017-03-08T08:18:38.564Z,50
2017-03-08T08:19:49.247Z,55
2017-03-08T08:20:59.625Z,55
2017-03-08T08:22:10.003Z,60
2017-03-08T08:23:20.789Z,65
2017-03-08T08:24:31.243Z,70
2017-03-08T08:25:41.939Z,70
2017-03-08T08:26:51.955Z,70
2017-03-08T08:28:02.745Z,75
2017-03-08T08:29:13.105Z,75
2017-03-08T08:30:22.714Z,70
2017-03-08T08:31:33.728Z,70
2017-03-08T08:32:44.495Z,65
2017-03-08T08:33:54.879Z,65
2017-03-08T08:35:05.228Z,65
2017-03-08T08:36:15.968Z,65
2017-03-08T08:37:27.116Z,65
2017-03-08T08:38:37.498Z,60
2017-03-08T08:39:47.088Z,65
2017-03-08T08:40:57.850Z,70
2017-03-08T08:42:08.217Z,75
2017-03-08T08:43:19.301Z,75
2017-03-08T08:44:29.264Z,75
2017-03-08T08:45:40.025Z,75
2017-03-08T08:46:50.380Z,80
2017-03-08T08:48:01.138Z,80
2017-03-08T08:49:11.961Z,85
2017-03-08T08:50:22.316Z,95
2017-03-08T08:51:32.686Z,95
2017-03-08T08:52:42.662Z,100
2017-03-08T08:53:53.066Z,100
2017-03-08T08:55:03.296Z,100
2017-03-08T08:56:13.266Z,100
2017-03-08T08:57:23.634Z,100
2017-03-08T08:58:34.425Z,95
2017-03-08T08:59:44.995Z,95
2017-03-08T09:00:56.108Z,90
2017-03-08T09:02:06.485Z,85
2017-03-08T09:03:16.853Z,80
2017-03-08T09:04:27.213Z,75
2017-03-08T09:05:37.205Z,75
2017-03-08T09:06:47.881Z,80
2017-03-08T09:07:58.278Z,80
2017-03-08T09:09:09.039Z,80
2017-03-08T09:10:19.827Z,75
2017-03-08T09:11:29.830Z,75
2017-03-08T09:12:40.921Z,70
2017-03-08T09:13:50.498Z,70
2017-03-08T09:15:00.909Z,70
2017-03-08T09:16:11.776Z,70
2017-03-08T09:17:22.543Z,70
2017-03-08T09:18:33.647Z,70
2017-03-08T09:19:42.847Z,70
2017-03-08T09:20:53.660Z,70
2017-03-08T09:22:04.098Z,70
2017-03-08T09:23:14.096Z,70
2017-03-08T09:24:24.792Z,70
2017-03-08T09:25:34.407Z,70
2017-03-08T09:26:44.799Z,70
2017-03-08T09:27:55.163Z,65
2017-03-08T09:29:05.913Z,70
2017-03-08T09:30:16.970Z,70
2017-03-08T09:31:27.318Z,70
2017-03-08T09:32:37.316Z,65
2017-03-08T09:33:47.692Z,65
2017-03-08T09:34:58.519Z,70
2017-03-08T09:36:09.570Z,70
2017-03-08T09:37:19.992Z,70
2017-03-08T09:38:29.973Z,70
2017-03-08T09:39:40.380Z,70
2017-03-08T09:40:51.151Z,70
2017-03-08T09:42:01.471Z,70
2017-03-08T09:43:11.872Z,70
2017-03-08T09:44:22.284Z,65
2017-03-08T09:45:33.035Z,70
2017-03-08T09:46:43.804Z,65
2017-03-08T09:47:54.837Z,65
2017-03-08T09:49:05.201Z,65
2017-03-08T09:50:15.558Z,65
2017-03-08T09:51:26.290Z,65
2017-03-08T09:52:36.732Z,65
2017-03-08T09:53:46.724Z,65
2017-03-08T09:54:57.485Z,65
2017-03-08T09:56:07.858Z,65
2017-03-08T09:57:17.826Z,65
2017-03-08T09:58:29.181Z,65
2017-03-08T09:59:39.137Z,70
2017-03-08T10:00:49.513Z,70
2017-03-08T10:02:00.267Z,70
2017-03-08T10:03:11.046Z,70
2017-03-08T10:04:21.347Z,70
2017-03-08T10:05:30.933Z,70
2017-03-08T10:06:41.329Z,70
2017-03-08T10:07:51.708Z,105
2017-03-08T10:09:02.112Z,105
2017-03-08T10:10:13.174Z,90
2017-03-08T10:11:23.167Z,75
2017-03-08T10:12:33.925Z,70
2017-03-08T10:13:44.293Z,80
2017-03-08T10:14:54.293Z,80
2017-03-08T10:16:04.956Z,80
2017-03-08T10:17:14.953Z,80
2017-03-08T10:18:24.962Z,80
2017-03-08T10:19:35.324Z,80
2017-03-08T10:20:45.694Z,80
2017-03-08T10:21:55.961Z,85
2017-03-08T10:23:05.984Z,80
2017-03-08T10:24:16.785Z,80
2017-03-08T10:25:26.777Z,95
2017-03-08T10:26:37.567Z,90
2017-03-08T10:27:47.849Z,95
2017-03-08T10:28:58.193Z,95
2017-03-08T10:30:08.549Z,90
2017-03-08T10:31:18.929Z,85
2017-03-08T10:32:29.692Z,90
2017-03-08T10:33:40.356Z,95
2017-03-08T10:34:50.720Z,95
2017-03-08T10:36:01.074Z,100
2017-03-08T10:37:11.823Z,100
2017-03-08T10:38:22.515Z,95
2017-03-08T10:39:33.195Z,95
2017-03-08T10:40:43.153Z,95
2017-03-08T10:41:53.109Z,100
2017-03-08T10:43:02.684Z,100
2017-03-08T10:44:13.086Z,105
2017-03-08T10:45:23.850Z,105
2017-03-08T10:46:34.261Z,105
2017-03-08T10:47:45.049Z,110
2017-03-08T10:48:55.017Z,115
2017-03-08T10:50:05.302Z,110
2017-03-08T10:51:14.898Z,110
2017-03-08T10:52:25.295Z,115
2017-03-08T10:53:34.917Z,115
2017-03-08T10:54:45.682Z,120
2017-03-08T10:55:56.053Z,120
2017-03-08T10:57:06.838Z,115
2017-03-08T10:58:17.588Z,115
2017-03-08T10:59:28.364Z,115
2017-03-08T11:00:38.583Z,115
2017-03-08T11:01:48.963Z,115
2017-03-08T11:02:58.918Z,105
2017-03-08T11:04:09.300Z,95
2017-03-08T11:05:19.676Z,100
2017-03-08T11:06:30.307Z,115
2017-03-08T11:07:40.686Z,120
2017-03-08T11:08:51.434Z,115
2017-03-08T11:10:01.385Z,120
2017-03-08T11:12:23.148Z,120
2017-03-08T11:13:33.980Z,120
2017-03-08T11:14:44.740Z,115
2017-03-08T11:15:55.486Z,115
2017-03-08T11:17:05.859Z,115
2017-03-08T11:18:16.463Z,125
2017-03-08T11:19:26.818Z,120
2017-03-08T11:20:37.206Z,120
2017-03-08T11:21:47.979Z,130
2017-03-08T11:22:58.732Z,125
2017-03-08T11:24:09.797Z,115
2017-03-08T11:25:20.578Z,110
2017-03-08T11:26:31.355Z,100
2017-03-08T11:27:42.124Z,110
2017-03-08T11:28:52.882Z,110
2017-03-08T11:30:03.363Z,105
2017-03-08T11:31:13.740Z,105
2017-03-08T11:32:24.741Z,110
2017-03-08T11:33:35.525Z,115
2017-03-08T11:34:45.877Z,105
2017-03-08T11:35:56.659Z,105
2017-03-08T11:37:07.497Z,105
2017-03-08T11:38:17.904Z,120
2017-03-08T11:39:28.664Z,115
2017-03-08T11:40:39.740Z,105
2017-03-08T11:41:50.340Z,105
2017-03-08T11:43:01.135Z,110
2017-03-08T11:44:11.474Z,115
2017-03-08T11:45:22.256Z,120
2017-03-08T11:46:32.908Z,105
2017-03-08T11:47:43.269Z,95
2017-03-08T11:48:53.623Z,100
2017-03-08T11:50:04.392Z,105
2017-03-08T11:51:14.779Z,95
2017-03-08T11:52:25.447Z,95
2017-03-08T11:53:35.829Z,90
2017-03-08T11:54:46.908Z,95
2017-03-08T11:55:57.696Z,100
2017-03-08T11:57:07.261Z,95
2017-03-08T11:58:17.628Z,95
2017-03-08T11:59:28.679Z,100
2017-03-08T12:00:39.452Z,105
2017-03-08T12:01:50.255Z,105
2017-03-08T12:03:01.016Z,105
2017-03-08T12:04:12.029Z,105
2017-03-08T12:05:22.824Z,105
2017-03-08T12:06:33.605Z,105
2017-03-08T12:07:44.389Z,105
2017-03-08T12:08:55.148Z,105
2017-03-08T12:10:06.162Z,105
2017-03-08T12:11:16.527Z,105
2017-03-08T12:12:27.354Z,110
2017-03-08T12:13:37.691Z,115
2017-03-08T12:14:48.497Z,115
2017-03-08T12:15:59.561Z,115
2017-03-08T12:17:09.911Z,115
2017-03-08T12:18:20.695Z,115
2017-03-08T12:19:31.074Z,115
2017-03-08T12:20:41.809Z,115
2017-03-08T12:21:52.515Z,115
2017-03-08T12:23:03.279Z,110
2017-03-08T12:24:13.638Z,110
2017-03-08T12:25:24.424Z,110
2017-03-08T12:26:34.803Z,110
2017-03-08T12:27:45.917Z,110
2017-03-08T12:28:56.255Z,105
2017-03-08T12:30:07.052Z,105
2017-03-08T12:31:17.425Z,110
2017-03-08T12:32:27.393Z,110
2017-03-08T12:33:38.046Z,115
2017-03-08T12:34:48.815Z,115
2017-03-08T12:35:59.186Z,120
2017-03-08T12:37:09.952Z,120
2017-03-08T12:38:20.366Z,120
2017-03-08T12:39:31.394Z,115
2017-03-08T12:40:41.756Z,105
2017-03-08T12:41:52.117Z,90
2017-03-08T12:43:02.493Z,90
2017-03-08T12:44:12.867Z,95
2017-03-08T12:45:23.477Z,105
2017-03-08T12:46:33.854Z,105
2017-03-08T12:47:44.598Z,125
2017-03-08T12:48:54.940Z,130
2017-03-08T12:50:05.316Z,130
2017-03-08T12:51:16.309Z,125
2017-03-08T12:52:27.070Z,120
2017-03-08T12:53:37.819Z,115
2017-03-08T12:54:48.588Z,110
2017-03-08T12:55:59.330Z,105
2017-03-08T12:57:10.000Z,100
2017-03-08T12:58:20.770Z,95
2017-03-08T12:59:31.132Z,90
2017-03-08T13:00:41.908Z,85
2017-03-08T13:01:52.277Z,85
2017-03-08T13:03:03.276Z,80
2017-03-08T13:04:13.669Z,80
2017-03-08T13:05:24.447Z,80
2017-03-08T13:06:34.028Z,75
2017-03-08T13:07:44.782Z,70
2017-03-08T13:08:55.832Z,70
2017-03-08T13:10:06.179Z,70
2017-03-08T13:11:16.542Z,80
2017-03-08T13:12:27.326Z,85
2017-03-08T13:13:37.734Z,80
2017-03-08T13:14:48.325Z,70
2017-03-08T13:15:58.703Z,60
2017-03-08T13:17:09.461Z,60
2017-03-08T13:18:19.824Z,60
2017-03-08T13:19:30.178Z,65
2017-03-08T13:20:41.174Z,65
2017-03-08T13:21:51.945Z,70
2017-03-08T13:23:02.725Z,70
2017-03-08T13:24:13.087Z,75
2017-03-08T13:25:23.898Z,75
2017-03-08T13:26:34.971Z,80
2017-03-08T13:27:45.297Z,85
2017-03-08T13:28:56.043Z,85
2017-03-08T13:30:06.817Z,90
2017-03-08T13:31:17.618Z,90
2017-03-08T13:32:28.314Z,95
2017-03-08T13:33:39.067Z,90
2017-03-08T13:34:49.443Z,90
2017-03-08T13:36:00.204Z,75
2017-03-08T13:37:10.959Z,70
2017-03-08T13:38:22.016Z,75
2017-03-08T13:39:32.802Z,80
2017-03-08T13:40:43.254Z,80
2017-03-08T13:41:53.247Z,95
2017-03-08T13:43:04.000Z,85
2017-03-08T13:44:14.766Z,85
2017-03-08T13:45:25.539Z,75
2017-03-08T13:46:36.315Z,75
2017-03-08T13:47:47.130Z,70
2017-03-08T13:48:58.216Z,65
2017-03-08T13:50:08.601Z,65
2017-03-08T13:51:19.382Z,55
2017-03-08T13:52:29.737Z,55
2017-03-08T13:53:39.323Z,50
2017-03-08T13:54:50.664Z,45
2017-03-08T13:56:01.056Z,45
2017-03-08T13:57:11.435Z,45
2017-03-08T13:58:22.184Z,45
2017-03-08T13:59:32.939Z,50
2017-03-08T14:00:43.970Z,50
2017-03-08T14:01:54.338Z,55
2017-03-08T14:03:04.697Z,65
2017-03-08T14:04:15.066Z,55
2017-03-08T14:05:25.061Z,55
2017-03-08T14:06:36.081Z,55
2017-03-08T14:07:46.818Z,70
2017-03-08T14:08:57.195Z,60
2017-03-08T14:10:07.199Z,55
2017-03-08T14:11:17.940Z,65
2017-03-08T14:12:28.173Z,75
2017-03-08T14:13:38.949Z,65
2017-03-08T14:14:48.908Z,70
2017-03-08T14:15:59.683Z,70
2017-03-08T14:17:10.082Z,70
2017-03-08T14:18:21.157Z,70
2017-03-08T14:19:31.522Z,70
2017-03-08T14:20:41.496Z,70
2017-03-08T14:21:51.852Z,75
2017-03-08T14:23:01.825Z,80
2017-03-08T14:24:12.447Z,80
2017-03-08T14:25:22.399Z,80
2017-03-08T14:26:33.174Z,80
2017-03-08T14:27:43.523Z,75
2017-03-08T14:28:53.877Z,75
2017-03-08T14:30:04.080Z,70
2017-03-08T14:31:14.053Z,65
2017-03-08T14:32:24.815Z,65
2017-03-08T14:33:35.306Z,65
2017-03-08T14:34:45.662Z,65
2017-03-08T14:35:56.319Z,60
2017-03-08T14:37:07.064Z,60
2017-03-08T14:38:17.020Z,60
2017-03-08T14:39:27.791Z,55
2017-03-08T14:40:38.153Z,55
2017-03-08T14:41:48.783Z,50
2017-03-08T14:42:58.371Z,50
2017-03-08T14:44:08.765Z,50
2017-03-08T14:45:19.583Z,50
2017-03-08T14:46:30.368Z,45
2017-03-08T14:47:40.995Z,45
2017-03-08T14:48:51.363Z,45
2017-03-08T14:50:01.340Z,45
2017-03-08T14:51:11.705Z,45
2017-03-08T14:52:22.492Z,45
2017-03-08T14:53:33.119Z,45
2017-03-08T14:54:43.877Z,45
2017-03-08T14:55:53.840Z,45
2017-03-08T14:57:04.210Z,45
2017-03-08T14:58:14.944Z,45
2017-03-08T14:59:25.174Z,40
2017-03-08T15:00:35.543Z,40
2017-03-08T15:01:45.539Z,40
2017-03-08T15:02:55.923Z,40
2017-03-08T15:04:06.681Z,40
2017-03-08T15:05:17.311Z,40
2017-03-08T15:06:27.689Z,40
2017-03-08T15:07:38.437Z,40
2017-03-08T15:08:47.619Z,40
2017-03-08T15:09:58.001Z,40
2017-03-08T15:11:09.097Z,40
2017-03-08T15:12:18.655Z,40
2017-03-08T15:13:29.008Z,40
2017-03-08T15:14:39.785Z,35
2017-03-08T15:15:50.536Z,35
2017-03-08T15:17:01.582Z,35
2017-03-08T15:18:12.332Z,35
2017-03-08T15:19:22.707Z,35
2017-03-08T15:20:33.472Z,35
2017-03-08T15:21:43.835Z,30
2017-03-08T15:22:54.845Z,30
2017-03-08T15:24:05.219Z,30
2017-03-08T15:25:15.973Z,30
2017-03-08T15:26:26.348Z,30
2017-03-08T15:27:37.087Z,30
2017-03-08T15:28:48.115Z,25
2017-03-08T15:29:58.105Z,25
2017-03-08T15:31:08.872Z,25
2017-03-08T15:32:19.628Z,25
2017-03-08T15:33:29.999Z,25
2017-03-08T15:34:40.989Z,25
2017-03-08T15:35:51.372Z,25
2017-03-08T15:37:01.721Z,25
2017-03-08T15:38:12.459Z,25
2017-03-08T15:39:22.811Z,25
2017-03-08T15:40:33.886Z,25
2017-03-08T15:41:44.639Z,25
2017-03-08T15:42:54.597Z,25
2017-03-08T15:44:04.562Z,25
2017-03-08T15:45:15.337Z,25
2017-03-08T15:46:25.935Z,25
2017-03-08T15:47:36.297Z,25
2017-03-08T15:48:46.649Z,25
2017-03-08T15:49:57.399Z,25
2017-03-08T15:51:08.184Z,25
2017-03-08T15:52:18.405Z,25
2017-03-08T15:53:28.386Z,25
2017-03-08T15:54:38.799Z,25
2017-03-08T15:55:49.564Z,25
2017-03-08T15:56:59.144Z,25
2017-03-08T15:58:10.154Z,25
2017-03-08T15:59:20.912Z,20
2017-03-08T16:00:31.694Z,20
2017-03-08T16:01:42.428Z,20
2017-03-08T16:02:52.813Z,20
2017-03-08T16:04:03.867Z,20
2017-03-08T16:05:14.214Z,20
2017-03-08T16:06:24.562Z,20
2017-03-08T16:07:34.521Z,15
2017-03-08T16:08:45.279Z,15
2017-03-08T16:09:56.301Z,15
2017-03-08T16:11:07.062Z,15
2017-03-08T16:12:17.824Z,15
2017-03-08T16:13:27.406Z,15
2017-03-08T16:14:38.169Z,15
2017-03-08T16:15:49.170Z,15
2017-03-08T16:16:59.551Z,10
2017-03-08T16:18:09.890Z,10
2017-03-08T16:19:20.242Z,10
2017-03-08T16:20:31.053Z,10
2017-03-08T16:21:41.287Z,10
2017-03-08T16:22:51.676Z,5
2017-03-08T16:24:02.045Z,5
2017-03-08T16:25:12.032Z,5
2017-03-08T16:26:22.797Z,5
2017-03-08T16:27:33.827Z,5
2017-03-08T16:28:44.192Z,5
2017-03-08T16:29:54.564Z,5
2017-03-08T16:31:05.334Z,5
2017-03-08T16:32:15.311Z,5
2017-03-08T16:33:25.991Z,5
2017-03-08T16:34:36.350Z,5
2017-03-08T16:35:47.107Z,5
2017-03-08T16:36:57.437Z,5
2017-03-08T16:38:07.782Z,5
2017-03-08T16:39:18.292Z,5
2017-03-08T16:40:28.635Z,5
2017-03-08T16:41:38.623Z,0
2017-03-08T16:42:49.372Z,0
2017-03-08T16:43:58.925Z,0
2017-03-08T16:45:09.121Z,0
2017-03-08T16:46:19.504Z,0
2017-03-08T16:47:30.279Z,0
2017-03-08T16:48:41.036Z,0
2017-03-08T16:49:50.991Z,0
2017-03-08T16:51:01.260Z,0
2017-03-08T16:52:11.210Z,0
2017-03-08T16:53:21.557Z,0
2017-03-08T16:54:32.317Z,0
2017-03-08T16:55:43.072Z,0
2017-03-08T16:56:53.748Z,0
2017-03-08T16:58:04.499Z,0